createdAt,value
2019-02-05T00:00:37.994Z,28.57
2019-02-05T00:03:08.678Z,31.30
2019-02-05T00:05:37.056Z,31.17
2019-02-05T00:08:05.469Z,30.40
2019-02-05T00:10:33.850Z,30.73
2019-02-05T00:13:02.396Z,31.00
2019-02-05T00:15:31.258Z,31.67
2019-02-05T00:17:59.669Z,37.20
2019-02-05T00:20:28.047Z,30.40
2019-02-05T00:22:56.542Z,33.07
2019-02-05T00:25:24.898Z,28.83
2019-02-05T00:27:53.334Z,29.63
2019-02-05T00:30:21.717Z,27.80
2019-02-05T00:32:50.133Z,31.27
2019-02-05T00:35:18.507Z,29.30
2019-02-05T00:37:46.910Z,33.17
2019-02-05T00:40:16.129Z,40.00
2019-02-05T00:42:44.542Z,44.30
2019-02-05T00:45:17.725Z,42.77
2019-02-05T00:47:46.214Z,37.07
2019-02-05T00:50:19.369Z,32.47
2019-02-05T00:52:47.794Z,35.33
2019-02-05T00:55:18.010Z,32.07
2019-02-05T00:57:46.417Z,33.47
2019-02-05T01:00:24.078Z,33.13
2019-02-05T01:02:52.494Z,33.77
2019-02-05T01:05:20.874Z,38.03
2019-02-05T01:07:49.287Z,31.60
2019-02-05T01:10:17.745Z,38.30
2019-02-05T01:12:46.113Z,37.17
2019-02-05T01:15:19.809Z,37.10
2019-02-05T01:17:48.539Z,37.83
2019-02-05T01:20:19.258Z,41.00
2019-02-05T01:22:48.492Z,66.37
2019-02-05T01:25:19.002Z,39.47
2019-02-05T01:27:48.230Z,38.53
2019-02-05T01:30:19.873Z,41.77
2019-02-05T01:32:48.475Z,42.27
2019-02-05T01:35:17.201Z,38.00
2019-02-05T01:37:45.884Z,40.37
2019-02-05T01:40:28.159Z,42.03
2019-02-05T01:42:56.864Z,47.27
2019-02-05T01:45:25.615Z,39.87
2019-02-05T01:47:54.345Z,38.90
2019-02-05T01:50:28.025Z,43.03
2019-02-05T01:52:56.747Z,41.20
2019-02-05T01:55:25.498Z,40.13
2019-02-05T01:57:54.302Z,47.60
2019-02-05T02:00:30.625Z,42.73
2019-02-05T02:02:59.188Z,46.50
2019-02-05T02:05:27.997Z,42.90
2019-02-05T02:07:57.237Z,40.13
2019-02-05T02:10:28.444Z,43.13
2019-02-05T02:12:57.585Z,46.00
2019-02-05T02:15:26.282Z,38.63
2019-02-05T02:17:55.017Z,39.27
2019-02-05T02:20:24.127Z,53.90
2019-02-05T02:22:52.966Z,45.17
2019-02-05T02:25:27.575Z,44.20
2019-02-05T02:27:56.301Z,45.00
2019-02-05T02:30:27.950Z,51.07
2019-02-05T02:32:56.687Z,45.67
2019-02-05T02:35:25.415Z,46.87
2019-02-05T02:37:57.345Z,50.00
2019-02-05T02:40:26.055Z,47.17
2019-02-05T02:42:54.804Z,49.83
2019-02-05T02:45:23.457Z,52.53
2019-02-05T02:47:52.196Z,62.43
2019-02-05T02:50:22.896Z,57.70
2019-02-05T02:52:52.235Z,62.70
2019-02-05T02:55:21.057Z,54.30
2019-02-05T02:57:49.802Z,61.97
2019-02-05T03:00:20.625Z,57.50
2019-02-05T03:02:49.934Z,51.33
2019-02-05T03:05:20.422Z,54.77
2019-02-05T03:07:49.451Z,47.17
2019-02-05T03:10:23.720Z,56.80
2019-02-05T03:12:52.430Z,57.87
2019-02-05T03:15:21.380Z,66.33
2019-02-05T03:17:50.099Z,58.97
2019-02-05T03:20:19.257Z,51.13
2019-02-05T03:22:47.989Z,63.20
2019-02-05T03:25:20.155Z,56.13
2019-02-05T03:27:48.885Z,61.13
2019-02-05T03:30:25.200Z,64.40
2019-02-05T03:32:56.118Z,69.70
2019-02-05T03:35:24.936Z,64.23
2019-02-05T03:37:53.799Z,65.30
2019-02-05T03:40:31.307Z,63.20
2019-02-05T03:43:00.268Z,62.03
2019-02-05T03:45:31.679Z,55.37
2019-02-05T03:48:02.968Z,61.60
2019-02-05T03:50:37.535Z,55.30
2019-02-05T03:53:12.055Z,54.30
2019-02-05T03:56:02.668Z,67.07
2019-02-05T03:58:39.727Z,55.40
2019-02-05T04:01:11.791Z,68.30
2019-02-05T04:03:46.171Z,64.07
2019-02-05T04:06:23.439Z,61.93
2019-02-05T04:09:05.189Z,68.47
2019-02-05T04:11:48.376Z,62.40
2019-02-05T04:14:41.135Z,63.73
2019-02-05T04:17:35.967Z,61.93
2019-02-05T04:20:25.715Z,61.63
2019-02-05T04:23:03.163Z,64.67
2019-02-05T04:25:59.109Z,59.83
2019-02-05T04:28:48.477Z,63.37
2019-02-05T04:31:36.683Z,70.20
2019-02-05T04:34:17.319Z,63.70
2019-02-05T04:36:49.206Z,60.97
2019-02-05T04:39:37.268Z,68.90
2019-02-05T04:42:25.646Z,72.10
2019-02-05T04:45:34.292Z,60.63
2019-02-05T04:48:24.807Z,62.03
2019-02-05T04:51:04.732Z,63.63
2019-02-05T04:53:42.236Z,71.07
2019-02-05T04:56:19.525Z,63.30
2019-02-05T04:58:56.756Z,67.07
2019-02-05T05:01:34.374Z,60.03
2019-02-05T05:04:14.778Z,71.53
2019-02-05T05:06:55.938Z,74.53
2019-02-05T05:09:30.828Z,75.00
2019-02-05T05:12:00.464Z,69.30
2019-02-05T05:14:29.189Z,67.53
2019-02-05T05:16:58.513Z,79.10
2019-02-05T05:19:27.467Z,73.33
2019-02-05T05:21:56.549Z,66.87
2019-02-05T05:24:25.375Z,69.50
2019-02-05T05:26:54.115Z,67.87
2019-02-05T05:29:22.853Z,71.03
2019-02-05T05:31:52.983Z,78.37
2019-02-05T05:34:22.035Z,67.30
2019-02-05T05:36:49.666Z,66.43
2019-02-05T05:39:18.787Z,67.23
2019-02-05T05:41:47.660Z,67.20
2019-02-05T05:44:16.435Z,68.40
2019-02-05T05:46:45.282Z,79.03
2019-02-05T05:49:14.020Z,69.33
2019-02-05T05:51:43.424Z,70.10
2019-02-05T05:54:12.221Z,70.83
2019-02-05T05:56:41.103Z,71.73
2019-02-05T05:59:10.089Z,64.87
2019-02-05T06:01:38.915Z,67.60
2019-02-05T06:04:07.727Z,69.93
2019-02-05T06:06:36.584Z,67.57
2019-02-05T06:09:07.822Z,71.97
2019-02-05T06:11:36.692Z,91.00
2019-02-05T06:14:05.634Z,91.30
2019-02-05T06:16:34.407Z,77.17
2019-02-05T06:19:03.219Z,84.97
2019-02-05T06:21:31.998Z,93.90
2019-02-05T06:24:01.341Z,89.83
2019-02-05T06:26:30.129Z,73.97
2019-02-05T06:28:58.848Z,74.53
2019-02-05T06:31:27.730Z,84.23
2019-02-05T06:33:56.498Z,77.97
2019-02-05T06:36:25.355Z,69.90
2019-02-05T06:38:54.247Z,81.47
2019-02-05T06:41:23.419Z,86.87
2019-02-05T06:43:52.205Z,92.73
2019-02-05T06:46:20.948Z,87.53
2019-02-05T06:48:49.721Z,81.10
2019-02-05T06:51:18.472Z,85.53
2019-02-05T06:53:47.223Z,85.70
2019-02-05T06:56:15.988Z,79.30
2019-02-05T06:58:46.623Z,90.17
2019-02-05T07:01:15.186Z,93.53
2019-02-05T07:03:44.098Z,107.90
2019-02-05T07:06:14.440Z,104.30
2019-02-05T07:08:44.977Z,90.90
2019-02-05T07:11:13.800Z,87.57
2019-02-05T07:13:43.871Z,84.20
2019-02-05T07:16:12.709Z,87.63
2019-02-05T07:18:42.529Z,87.43
2019-02-05T07:21:11.374Z,94.30
2019-02-05T07:23:40.220Z,84.50
2019-02-05T07:26:09.045Z,83.00
2019-02-05T07:28:37.843Z,90.70
2019-02-05T07:31:14.407Z,89.10
2019-02-05T07:33:40.881Z,89.83
2019-02-05T07:36:13.456Z,93.57
2019-02-05T07:38:42.324Z,94.03
2019-02-05T07:41:11.173Z,95.13
2019-02-05T07:43:39.949Z,86.03
2019-02-05T07:46:09.429Z,92.93
2019-02-05T07:48:38.273Z,83.70
2019-02-05T07:51:07.026Z,87.53
2019-02-05T07:53:35.843Z,88.07
2019-02-05T07:56:05.814Z,92.97
2019-02-05T07:58:34.595Z,107.63
2019-02-05T08:01:03.343Z,99.90
2019-02-05T08:03:32.361Z,97.30
2019-02-05T08:06:01.148Z,92.47
2019-02-05T08:08:30.015Z,98.40
2019-02-05T08:10:58.786Z,106.73
2019-02-05T08:13:27.534Z,87.87
2019-02-05T08:15:56.301Z,82.83
2019-02-05T08:18:25.052Z,101.77
2019-02-05T08:20:53.820Z,91.73
2019-02-05T08:23:23.159Z,85.87
2019-02-05T08:25:51.840Z,83.17
2019-02-05T08:28:20.598Z,91.70
2019-02-05T08:30:49.815Z,76.43
2019-02-05T08:33:18.592Z,69.17
2019-02-05T08:35:47.349Z,74.83
2019-02-05T08:38:16.105Z,66.20
2019-02-05T08:40:45.195Z,65.40
2019-02-05T08:43:13.944Z,63.27
2019-02-05T08:45:42.659Z,62.63
2019-02-05T08:48:13.031Z,62.13
2019-02-05T08:50:41.905Z,57.77
2019-02-05T08:53:10.575Z,59.57
2019-02-05T08:55:39.293Z,64.23
2019-02-05T08:58:11.337Z,59.53
2019-02-05T09:00:41.863Z,70.20
2019-02-05T09:03:11.671Z,61.70
2019-02-05T09:05:40.648Z,72.30
2019-02-05T09:08:09.401Z,70.00
2019-02-05T09:10:40.676Z,61.27
2019-02-05T09:13:10.099Z,65.63
2019-02-05T09:15:38.852Z,62.03
2019-02-05T09:18:08.104Z,67.07
2019-02-05T09:20:36.848Z,78.43
2019-02-05T09:23:06.364Z,85.33
2019-02-05T09:25:35.133Z,88.63
2019-02-05T09:28:03.843Z,83.90
2019-02-05T09:30:35.000Z,74.17
2019-02-05T09:33:06.664Z,68.07
2019-02-05T09:35:35.503Z,65.07
2019-02-05T09:38:04.335Z,68.27
2019-02-05T09:40:33.548Z,70.33
2019-02-05T09:43:02.339Z,60.07
2019-02-05T09:45:31.960Z,72.20
2019-02-05T09:48:01.772Z,67.57
2019-02-05T09:50:36.720Z,54.63
2019-02-05T09:53:01.283Z,44.47
2019-02-05T09:55:30.041Z,46.80
2019-02-05T09:57:58.768Z,46.13
2019-02-05T10:00:36.212Z,41.53
2019-02-05T10:03:06.333Z,44.80
2019-02-05T10:05:36.364Z,40.80
2019-02-05T10:08:05.923Z,44.40
2019-02-05T10:10:34.703Z,41.60
2019-02-05T10:13:03.867Z,35.87
2019-02-05T10:15:38.198Z,40.50
2019-02-05T10:18:08.567Z,41.77
2019-02-05T10:20:37.291Z,37.50
2019-02-05T10:23:06.633Z,41.47
2019-02-05T10:25:35.859Z,35.17
2019-02-05T10:28:04.814Z,37.40
2019-02-05T10:30:36.327Z,39.57
2019-02-05T10:33:06.251Z,39.73
2019-02-05T10:35:35.007Z,38.40
2019-02-05T10:38:04.526Z,35.97
2019-02-05T10:40:33.268Z,38.07
2019-02-05T10:43:02.009Z,35.87
2019-02-05T10:45:30.752Z,35.10
2019-02-05T10:47:59.479Z,37.47
2019-02-05T10:50:28.356Z,37.20
2019-02-05T10:52:57.073Z,36.90
2019-02-05T10:55:25.745Z,36.33
2019-02-05T10:57:55.916Z,36.63
2019-02-05T11:00:30.467Z,36.90
2019-02-05T11:03:01.512Z,35.70
2019-02-05T11:05:31.425Z,37.60
2019-02-05T11:08:00.274Z,32.30
2019-02-05T11:10:28.992Z,35.33
2019-02-05T11:12:57.770Z,34.83
2019-02-05T11:15:28.945Z,37.57
2019-02-05T11:17:57.889Z,38.33
2019-02-05T11:20:28.494Z,37.20
2019-02-05T11:22:57.228Z,34.70
2019-02-05T11:25:26.075Z,34.27
2019-02-05T11:27:54.925Z,38.07
2019-02-05T11:30:26.410Z,35.60
2019-02-05T11:32:55.125Z,34.87
2019-02-05T11:35:23.883Z,31.03
2019-02-05T11:37:53.147Z,32.93
2019-02-05T11:40:33.015Z,31.27
2019-02-05T11:43:01.744Z,34.73
2019-02-05T11:45:30.499Z,34.67
2019-02-05T11:48:00.651Z,32.87
2019-02-05T11:50:29.402Z,35.47
2019-02-05T11:52:58.181Z,29.03
2019-02-05T11:55:29.824Z,29.23
2019-02-05T11:57:58.562Z,28.37
2019-02-05T12:00:33.048Z,30.10
2019-02-05T12:03:02.064Z,30.93
2019-02-05T12:05:30.824Z,26.83
2019-02-05T12:08:00.152Z,28.40
2019-02-05T12:10:28.866Z,28.70
2019-02-05T12:12:57.662Z,29.73
2019-02-05T12:15:26.469Z,28.90
2019-02-05T12:17:55.230Z,26.77
2019-02-05T12:20:23.960Z,27.93
2019-02-05T12:22:52.846Z,27.50
2019-02-05T12:25:23.668Z,26.43
2019-02-05T12:27:52.435Z,28.53
2019-02-05T12:30:26.706Z,25.70
2019-02-05T12:32:55.447Z,26.10
2019-02-05T12:35:24.159Z,25.27
2019-02-05T12:37:52.917Z,27.40
2019-02-05T12:40:22.440Z,26.50
2019-02-05T12:42:52.666Z,28.00
2019-02-05T12:45:30.217Z,24.77
2019-02-05T12:47:58.979Z,26.60
2019-02-05T12:50:30.038Z,29.73
2019-02-05T12:52:58.965Z,19.37
2019-02-05T12:55:28.367Z,20.47
2019-02-05T12:57:57.728Z,27.80
2019-02-05T13:00:32.243Z,27.40
2019-02-05T13:03:01.352Z,30.27
2019-02-05T13:05:30.169Z,27.30
2019-02-05T13:07:59.490Z,27.17
2019-02-05T13:10:40.218Z,24.60
2019-02-05T13:13:09.645Z,23.53
2019-02-05T13:15:38.584Z,24.90
2019-02-05T13:18:08.143Z,28.27
2019-02-05T13:20:38.758Z,27.07
2019-02-05T13:23:10.481Z,27.37
2019-02-05T13:25:39.850Z,25.67
2019-02-05T13:28:10.829Z,28.37
2019-02-05T13:30:40.595Z,28.47
2019-02-05T13:33:10.822Z,25.60
2019-02-05T13:35:41.907Z,26.50
2019-02-05T13:38:10.769Z,27.97
2019-02-05T13:40:39.499Z,30.27
2019-02-05T13:43:08.894Z,28.73
2019-02-05T13:45:40.952Z,25.30
2019-02-05T13:48:10.266Z,23.33
2019-02-05T13:50:39.050Z,23.90
2019-02-05T13:53:08.187Z,26.87
2019-02-05T13:55:42.139Z,26.97
2019-02-05T13:58:12.521Z,28.20
2019-02-05T14:00:46.700Z,25.30
2019-02-05T14:03:15.413Z,28.57
2019-02-05T14:05:44.663Z,25.10
2019-02-05T14:08:13.366Z,25.20
2019-02-05T14:10:44.211Z,25.90
2019-02-05T14:13:12.856Z,23.20
2019-02-05T14:15:46.404Z,24.93
2019-02-05T14:18:15.105Z,25.50
2019-02-05T14:20:43.840Z,27.63
2019-02-05T14:23:12.646Z,26.03
2019-02-05T14:25:41.387Z,26.40
2019-02-05T14:28:10.693Z,26.40
2019-02-05T14:30:44.947Z,29.47
2019-02-05T14:33:14.215Z,33.23
2019-02-05T14:35:42.902Z,28.90
2019-02-05T14:38:11.699Z,29.03
2019-02-05T14:40:40.516Z,27.90
2019-02-05T14:43:09.426Z,29.57
2019-02-05T14:45:39.132Z,27.33
2019-02-05T14:48:28.619Z,28.97
2019-02-05T14:50:57.350Z,29.53
2019-02-05T14:53:26.469Z,31.77
2019-02-05T14:55:55.359Z,31.27
2019-02-05T14:58:24.729Z,29.93
2019-02-05T15:00:53.567Z,29.57
2019-02-05T15:03:22.577Z,30.90
2019-02-05T15:05:51.411Z,29.73
2019-02-05T15:08:20.172Z,28.87
2019-02-05T15:10:48.997Z,26.23
2019-02-05T15:13:18.923Z,27.40
2019-02-05T15:15:51.639Z,28.33
2019-02-05T15:18:20.336Z,31.33
2019-02-05T15:20:49.570Z,30.67
2019-02-05T15:23:18.306Z,33.03
2019-02-05T15:25:47.835Z,29.07
2019-02-05T15:28:17.128Z,30.67
2019-02-05T15:30:45.975Z,26.77
2019-02-05T15:33:24.617Z,31.93
2019-02-05T15:35:57.888Z,26.80
2019-02-05T15:38:26.979Z,31.07
2019-02-05T15:40:55.727Z,32.00
2019-02-05T15:43:24.501Z,27.60
2019-02-05T15:45:53.219Z,30.20
2019-02-05T15:48:22.086Z,34.77
2019-02-05T15:50:50.832Z,43.27
2019-02-05T15:53:19.998Z,54.67
2019-02-05T15:55:49.678Z,40.90
2019-02-05T15:58:18.464Z,30.83
2019-02-05T16:00:47.484Z,30.40
2019-02-05T16:03:16.279Z,26.33
2019-02-05T16:05:45.115Z,30.20
2019-02-05T16:08:13.822Z,24.33
2019-02-05T16:10:43.038Z,25.93
2019-02-05T16:13:11.759Z,27.13
2019-02-05T16:15:40.505Z,28.77
2019-02-05T16:18:09.253Z,30.37
2019-02-05T16:20:37.946Z,26.03
2019-02-05T16:23:07.420Z,31.13
2019-02-05T16:25:36.551Z,57.53
2019-02-05T16:28:05.791Z,34.90
2019-02-05T16:30:34.497Z,47.00
2019-02-05T16:33:03.333Z,32.30
2019-02-05T16:35:31.999Z,26.80
2019-02-05T16:38:00.744Z,25.17
2019-02-05T16:40:32.427Z,28.40
2019-02-05T16:43:01.124Z,31.57
2019-02-05T16:45:31.359Z,28.50
2019-02-05T16:48:00.071Z,25.50
2019-02-05T16:50:43.609Z,31.33
2019-02-05T16:53:12.820Z,27.57
2019-02-05T16:55:41.655Z,27.13
2019-02-05T16:58:10.449Z,25.27
2019-02-05T17:00:40.281Z,33.40
2019-02-05T17:03:08.981Z,31.67
2019-02-05T17:05:42.305Z,28.77
2019-02-05T17:08:11.346Z,30.80
2019-02-05T17:10:39.985Z,30.33
2019-02-05T17:13:11.502Z,28.13
2019-02-05T17:15:38.933Z,28.17
2019-02-05T17:18:07.706Z,25.33
2019-02-05T17:20:36.494Z,32.63
2019-02-05T17:23:05.846Z,29.87
2019-02-05T17:25:36.025Z,31.57
2019-02-05T17:28:07.475Z,36.30
2019-02-05T17:30:38.280Z,42.00
2019-02-05T17:33:07.415Z,42.03
2019-02-05T17:35:36.123Z,34.27
2019-02-05T17:38:07.478Z,33.00
2019-02-05T17:40:36.254Z,38.00
2019-02-05T17:43:11.053Z,35.27
2019-02-05T17:45:41.678Z,37.70
2019-02-05T17:48:13.672Z,39.77
2019-02-05T17:50:43.125Z,35.13
2019-02-05T17:53:11.973Z,37.40
2019-02-05T17:55:40.823Z,42.33
2019-02-05T17:58:09.805Z,36.43
2019-02-05T18:00:42.674Z,36.80
2019-02-05T18:03:11.410Z,52.77
2019-02-05T18:05:40.446Z,110.37
2019-02-05T18:08:09.209Z,141.10
2019-02-05T18:10:37.824Z,154.73
2019-02-05T18:13:06.568Z,163.87
2019-02-05T18:15:40.610Z,140.67
2019-02-05T18:18:09.454Z,99.87
2019-02-05T18:20:38.455Z,66.33
2019-02-05T18:23:07.344Z,55.60
2019-02-05T18:25:36.241Z,48.90
2019-02-05T18:28:05.839Z,46.60
2019-02-05T18:30:37.066Z,46.67
2019-02-05T18:33:06.675Z,37.37
2019-02-05T18:35:35.416Z,51.13
2019-02-05T18:38:09.698Z,45.53
2019-02-05T18:40:38.434Z,46.57
2019-02-05T18:43:07.402Z,47.50
2019-02-05T18:45:36.119Z,42.63
2019-02-05T18:48:05.462Z,38.30
2019-02-05T18:50:34.197Z,45.70
2019-02-05T18:53:02.829Z,43.50
2019-02-05T18:55:37.423Z,42.43
2019-02-05T18:58:09.323Z,52.23
2019-02-05T19:00:40.018Z,48.80
2019-02-05T19:03:15.436Z,59.93
2019-02-05T19:05:39.587Z,54.50
2019-02-05T19:08:08.818Z,58.43
2019-02-05T19:10:37.447Z,56.63
2019-02-05T19:13:06.484Z,54.03
2019-02-05T19:15:40.439Z,55.73
2019-02-05T19:18:10.686Z,65.63
2019-02-05T19:20:39.882Z,54.93
2019-02-05T19:23:10.205Z,54.57
2019-02-05T19:25:49.652Z,58.53
2019-02-05T19:28:28.962Z,51.53
2019-02-05T19:31:04.756Z,51.83
2019-02-05T19:33:33.505Z,57.43
2019-02-05T19:36:02.230Z,58.67
2019-02-05T19:38:31.856Z,60.37
2019-02-05T19:41:01.058Z,66.97
2019-02-05T19:43:29.627Z,57.17
2019-02-05T19:46:00.013Z,57.90
2019-02-05T19:48:36.317Z,54.60
2019-02-05T19:51:05.512Z,70.13
2019-02-05T19:53:34.226Z,70.00
2019-02-05T19:56:03.442Z,76.50
2019-02-05T19:58:32.427Z,90.73
2019-02-05T20:01:01.132Z,79.30
2019-02-05T20:03:38.401Z,75.70
2019-02-05T20:06:00.149Z,84.53
2019-02-05T20:08:28.903Z,78.47
2019-02-05T20:10:57.606Z,78.60
2019-02-05T20:13:26.169Z,82.67
2019-02-05T20:15:55.407Z,82.57
2019-02-05T20:18:24.151Z,74.87
2019-02-05T20:20:53.334Z,77.77
2019-02-05T20:23:22.014Z,67.57
2019-02-05T20:25:50.766Z,78.80
2019-02-05T20:28:19.452Z,63.77
2019-02-05T20:30:48.126Z,65.23
2019-02-05T20:33:17.280Z,68.67
2019-02-05T20:35:45.910Z,97.93
2019-02-05T20:38:15.066Z,81.60
2019-02-05T20:40:43.798Z,80.03
2019-02-05T20:43:12.432Z,74.07
2019-02-05T20:45:41.111Z,69.43
2019-02-05T20:48:09.835Z,70.10
2019-02-05T20:50:38.737Z,74.83
2019-02-05T20:53:13.861Z,68.27
2019-02-05T20:55:38.066Z,65.43
2019-02-05T20:58:07.111Z,68.10
2019-02-05T21:00:35.845Z,72.10
2019-02-05T21:03:04.554Z,70.03
2019-02-05T21:05:33.295Z,68.83
2019-02-05T21:08:02.106Z,77.40
2019-02-05T21:10:31.915Z,80.67
2019-02-05T21:13:00.654Z,97.07
2019-02-05T21:15:29.376Z,93.30
2019-02-05T21:17:58.112Z,87.23
2019-02-05T21:20:31.726Z,74.70
2019-02-05T21:23:00.216Z,63.90
2019-02-05T21:25:29.034Z,66.27
2019-02-05T21:27:58.477Z,63.67
2019-02-05T21:30:28.661Z,62.47
2019-02-05T21:32:57.405Z,77.53
2019-02-05T21:35:26.106Z,65.30
2019-02-05T21:37:54.943Z,74.47
2019-02-05T21:40:27.500Z,76.80
2019-02-05T21:42:56.206Z,72.33
2019-02-05T21:45:28.414Z,83.93
2019-02-05T21:47:57.459Z,83.13
2019-02-05T21:50:26.557Z,82.13
2019-02-05T21:52:55.543Z,81.60
2019-02-05T21:55:26.618Z,84.53
2019-02-05T21:57:55.411Z,110.10
2019-02-05T22:00:32.564Z,86.93
2019-02-05T22:03:01.309Z,95.33
2019-02-05T22:05:31.597Z,116.77
2019-02-05T22:08:00.755Z,85.40
2019-02-05T22:10:29.592Z,90.83
2019-02-05T22:12:58.305Z,76.60
2019-02-05T22:15:27.456Z,85.20
2019-02-05T22:17:56.030Z,88.07
2019-02-05T22:20:26.437Z,73.50
2019-02-05T22:22:56.209Z,75.47
2019-02-05T22:25:30.004Z,86.23
2019-02-05T22:27:58.712Z,85.30
2019-02-05T22:30:32.823Z,91.77
2019-02-05T22:33:02.168Z,93.70
2019-02-05T22:35:31.402Z,99.77
2019-02-05T22:38:01.748Z,88.60
2019-02-05T22:40:30.484Z,85.50
2019-02-05T22:42:59.490Z,85.73
2019-02-05T22:45:34.637Z,86.80
2019-02-05T22:48:11.145Z,81.30
2019-02-05T22:50:39.875Z,73.43
2019-02-05T22:53:10.417Z,72.90
2019-02-05T22:55:39.952Z,71.40
2019-02-05T22:58:08.676Z,90.80
2019-02-05T23:01:08.927Z,87.67
2019-02-05T23:03:40.737Z,80.33
2019-02-05T23:06:12.866Z,82.17
2019-02-05T23:08:41.540Z,76.37
2019-02-05T23:11:39.863Z,76.13
2019-02-05T23:14:08.619Z,78.40
2019-02-05T23:16:37.328Z,69.03
2019-02-05T23:19:06.703Z,87.03
2019-02-05T23:21:35.454Z,84.33
2019-02-05T23:24:04.671Z,81.30
2019-02-05T23:26:33.413Z,77.30
2019-02-05T23:29:02.125Z,74.47
2019-02-05T23:31:30.871Z,88.90
2019-02-05T23:33:59.444Z,87.83
2019-02-05T23:36:28.191Z,80.13
2019-02-05T23:38:57.209Z,81.30
2019-02-05T23:41:25.867Z,76.43
2019-02-05T23:43:55.734Z,73.17
2019-02-05T23:46:24.479Z,76.37
2019-02-05T23:48:53.187Z,79.37
2019-02-05T23:51:21.927Z,80.73
2019-02-05T23:53:51.138Z,84.33
2019-02-05T23:56:25.855Z,78.33
2019-02-05T23:58:50.092Z,97.07
